sensor_id;sensor_type;location;lat;lon;timestamp;P1;durP1;ratioP1;P2;durP2;ratioP2
67442;SDS011;54311;51.726;5.154;2023-04-15T00:01:03;14.07;;;9.77;;
67442;SDS011;54311;51.726;5.154;2023-04-15T00:03:29;12.10;;;9.68;;
67442;SDS011;54311;51.726;5.154;2023-04-15T00:05:56;13.60;;;9.50;;
67442;SDS011;54311;51.726;5.154;2023-04-15T00:08:22;10.10;;;9.13;;
67442;SDS011;54311;51.726;5.154;2023-04-15T00:10:47;12.15;;;9.30;;
67442;SDS011;54311;51.726;5.154;2023-04-15T00:13:13;9.88;;;8.85;;
67442;SDS011;54311;51.726;5.154;2023-04-15T00:15:39;11.20;;;10.02;;
67442;SDS011;54311;51.726;5.154;2023-04-15T00:18:04;14.85;;;9.88;;
67442;SDS011;54311;51.726;5.154;2023-04-15T00:20:31;16.83;;;9.52;;
67442;SDS011;54311;51.726;5.154;2023-04-15T00:22:56;11.18;;;9.85;;
67442;SDS011;54311;51.726;5.154;2023-04-15T00:25:24;12.13;;;9.73;;
67442;SDS011;54311;51.726;5.154;2023-04-15T00:27:49;11.13;;;9.95;;
67442;SDS011;54311;51.726;5.154;2023-04-15T00:30:15;10.52;;;9.60;;
67442;SDS011;54311;51.726;5.154;2023-04-15T00:32:40;13.35;;;9.55;;
67442;SDS011;54311;51.726;5.154;2023-04-15T00:35:06;10.80;;;9.77;;
67442;SDS011;54311;51.726;5.154;2023-04-15T00:37:32;11.65;;;9.68;;
67442;SDS011;54311;51.726;5.154;2023-04-15T00:39:59;12.45;;;9.43;;
67442;SDS011;54311;51.726;5.154;2023-04-15T00:42:24;11.23;;;10.18;;
67442;SDS011;54311;51.726;5.154;2023-04-15T00:44:50;11.05;;;10.00;;
67442;SDS011;54311;51.726;5.154;2023-04-15T00:47:16;14.95;;;10.13;;
67442;SDS011;54311;51.726;5.154;2023-04-15T00:49:41;17.50;;;10.90;;
67442;SDS011;54311;51.726;5.154;2023-04-15T00:52:06;12.35;;;10.65;;
67442;SDS011;54311;51.726;5.154;2023-04-15T00:54:32;11.25;;;10.10;;
67442;SDS011;54311;51.726;5.154;2023-04-15T00:56:58;13.88;;;10.48;;
67442;SDS011;54311;51.726;5.154;2023-04-15T00:59:24;10.65;;;9.95;;
67442;SDS011;54311;51.726;5.154;2023-04-15T01:01:50;14.10;;;10.15;;
67442;SDS011;54311;51.726;5.154;2023-04-15T01:04:16;11.50;;;10.35;;
67442;SDS011;54311;51.726;5.154;2023-04-15T01:06:41;13.57;;;10.57;;
67442;SDS011;54311;51.726;5.154;2023-04-15T01:09:07;13.02;;;10.18;;
67442;SDS011;54311;51.726;5.154;2023-04-15T01:11:32;13.55;;;11.05;;
67442;SDS011;54311;51.726;5.154;2023-04-15T01:14:00;13.73;;;11.15;;
67442;SDS011;54311;51.726;5.154;2023-04-15T01:16:26;14.32;;;10.98;;
67442;SDS011;54311;51.726;5.154;2023-04-15T01:18:52;12.35;;;11.10;;
67442;SDS011;54311;51.726;5.154;2023-04-15T01:21:18;12.88;;;11.52;;
67442;SDS011;54311;51.726;5.154;2023-04-15T01:23:44;13.05;;;11.73;;
67442;SDS011;54311;51.726;5.154;2023-04-15T01:26:11;11.73;;;10.63;;
67442;SDS011;54311;51.726;5.154;2023-04-15T01:28:37;13.27;;;11.82;;
67442;SDS011;54311;51.726;5.154;2023-04-15T01:31:10;16.60;;;11.93;;
67442;SDS011;54311;51.726;5.154;2023-04-15T01:33:40;14.35;;;11.70;;
67442;SDS011;54311;51.726;5.154;2023-04-15T01:36:06;12.75;;;11.38;;
67442;SDS011;54311;51.726;5.154;2023-04-15T01:38:33;13.63;;;11.18;;
67442;SDS011;54311;51.726;5.154;2023-04-15T01:40:59;13.18;;;11.80;;
67442;SDS011;54311;51.726;5.154;2023-04-15T01:43:25;14.38;;;11.23;;
67442;SDS011;54311;51.726;5.154;2023-04-15T01:45:51;11.95;;;10.80;;
67442;SDS011;54311;51.726;5.154;2023-04-15T01:48:16;12.80;;;11.52;;
67442;SDS011;54311;51.726;5.154;2023-04-15T01:50:42;15.40;;;12.30;;
67442;SDS011;54311;51.726;5.154;2023-04-15T01:53:07;18.95;;;12.63;;
67442;SDS011;54311;51.726;5.154;2023-04-15T01:55:33;13.32;;;12.30;;
67442;SDS011;54311;51.726;5.154;2023-04-15T01:57:58;13.63;;;12.38;;
67442;SDS011;54311;51.726;5.154;2023-04-15T02:00:24;13.55;;;12.23;;
67442;SDS011;54311;51.726;5.154;2023-04-15T02:02:49;16.15;;;12.20;;
67442;SDS011;54311;51.726;5.154;2023-04-15T02:05:15;13.90;;;12.43;;
67442;SDS011;54311;51.726;5.154;2023-04-15T02:07:43;16.42;;;12.38;;
67442;SDS011;54311;51.726;5.154;2023-04-15T02:10:09;18.30;;;12.50;;
67442;SDS011;54311;51.726;5.154;2023-04-15T02:12:37;15.73;;;12.30;;
67442;SDS011;54311;51.726;5.154;2023-04-15T02:15:02;13.85;;;12.35;;
67442;SDS011;54311;51.726;5.154;2023-04-15T02:17:27;13.77;;;12.48;;
67442;SDS011;54311;51.726;5.154;2023-04-15T02:19:54;13.77;;;12.65;;
67442;SDS011;54311;51.726;5.154;2023-04-15T02:22:20;18.27;;;12.68;;
67442;SDS011;54311;51.726;5.154;2023-04-15T02:24:45;14.18;;;12.90;;
67442;SDS011;54311;51.726;5.154;2023-04-15T02:27:14;14.60;;;12.75;;
67442;SDS011;54311;51.726;5.154;2023-04-15T02:29:40;14.95;;;13.55;;
67442;SDS011;54311;51.726;5.154;2023-04-15T02:32:05;15.60;;;14.07;;
67442;SDS011;54311;51.726;5.154;2023-04-15T02:34:31;14.10;;;12.73;;
67442;SDS011;54311;51.726;5.154;2023-04-15T02:36:57;16.52;;;13.60;;
67442;SDS011;54311;51.726;5.154;2023-04-15T02:39:23;16.20;;;14.60;;
67442;SDS011;54311;51.726;5.154;2023-04-15T02:41:48;15.18;;;13.88;;
67442;SDS011;54311;51.726;5.154;2023-04-15T02:44:16;14.52;;;13.20;;
67442;SDS011;54311;51.726;5.154;2023-04-15T02:46:46;15.88;;;14.30;;
67442;SDS011;54311;51.726;5.154;2023-04-15T02:49:16;15.02;;;13.63;;
67442;SDS011;54311;51.726;5.154;2023-04-15T02:51:42;17.70;;;14.50;;
67442;SDS011;54311;51.726;5.154;2023-04-15T02:54:07;15.48;;;13.98;;
67442;SDS011;54311;51.726;5.154;2023-04-15T02:56:33;16.85;;;14.75;;
67442;SDS011;54311;51.726;5.154;2023-04-15T02:58:58;15.90;;;14.38;;
67442;SDS011;54311;51.726;5.154;2023-04-15T03:01:23;15.50;;;14.00;;
67442;SDS011;54311;51.726;5.154;2023-04-15T03:03:50;18.48;;;14.43;;
67442;SDS011;54311;51.726;5.154;2023-04-15T03:06:15;16.65;;;14.95;;
67442;SDS011;54311;51.726;5.154;2023-04-15T03:08:40;19.65;;;14.48;;
67442;SDS011;54311;51.726;5.154;2023-04-15T03:11:06;19.95;;;14.75;;
67442;SDS011;54311;51.726;5.154;2023-04-15T03:13:32;17.08;;;15.45;;
67442;SDS011;54311;51.726;5.154;2023-04-15T03:15:57;17.02;;;15.45;;
67442;SDS011;54311;51.726;5.154;2023-04-15T03:18:22;15.85;;;14.27;;
67442;SDS011;54311;51.726;5.154;2023-04-15T03:20:48;17.20;;;14.00;;
67442;SDS011;54311;51.726;5.154;2023-04-15T03:23:13;16.70;;;14.63;;
67442;SDS011;54311;51.726;5.154;2023-04-15T03:25:38;15.65;;;13.82;;
67442;SDS011;54311;51.726;5.154;2023-04-15T03:28:04;15.07;;;13.75;;
67442;SDS011;54311;51.726;5.154;2023-04-15T03:30:30;15.63;;;14.07;;
67442;SDS011;54311;51.726;5.154;2023-04-15T03:32:55;16.23;;;14.73;;
67442;SDS011;54311;51.726;5.154;2023-04-15T03:35:20;15.63;;;14.13;;
67442;SDS011;54311;51.726;5.154;2023-04-15T03:37:46;14.45;;;13.30;;
67442;SDS011;54311;51.726;5.154;2023-04-15T03:40:13;17.88;;;16.27;;
67442;SDS011;54311;51.726;5.154;2023-04-15T03:42:38;17.67;;;15.80;;
67442;SDS011;54311;51.726;5.154;2023-04-15T03:45:03;18.70;;;17.10;;
67442;SDS011;54311;51.726;5.154;2023-04-15T03:47:29;20.45;;;18.15;;
67442;SDS011;54311;51.726;5.154;2023-04-15T03:49:54;18.58;;;16.77;;
67442;SDS011;54311;51.726;5.154;2023-04-15T03:52:20;17.08;;;15.43;;
67442;SDS011;54311;51.726;5.154;2023-04-15T03:54:45;18.20;;;16.35;;
67442;SDS011;54311;51.726;5.154;2023-04-15T03:57:11;17.30;;;15.60;;
67442;SDS011;54311;51.726;5.154;2023-04-15T03:59:38;16.67;;;15.05;;
67442;SDS011;54311;51.726;5.154;2023-04-15T04:02:03;17.95;;;15.77;;
67442;SDS011;54311;51.726;5.154;2023-04-15T04:04:28;15.80;;;14.50;;
67442;SDS011;54311;51.726;5.154;2023-04-15T04:06:54;17.20;;;15.48;;
67442;SDS011;54311;51.726;5.154;2023-04-15T04:09:19;16.95;;;15.35;;
67442;SDS011;54311;51.726;5.154;2023-04-15T04:11:44;17.75;;;16.13;;
67442;SDS011;54311;51.726;5.154;2023-04-15T04:14:10;16.88;;;15.10;;
67442;SDS011;54311;51.726;5.154;2023-04-15T04:16:35;18.27;;;16.58;;
67442;SDS011;54311;51.726;5.154;2023-04-15T04:19:00;18.80;;;17.08;;
67442;SDS011;54311;51.726;5.154;2023-04-15T04:21:26;17.58;;;16.00;;
67442;SDS011;54311;51.726;5.154;2023-04-15T04:23:52;18.85;;;16.83;;
67442;SDS011;54311;51.726;5.154;2023-04-15T04:26:17;18.33;;;16.48;;
67442;SDS011;54311;51.726;5.154;2023-04-15T04:28:43;18.17;;;16.33;;
67442;SDS011;54311;51.726;5.154;2023-04-15T04:31:09;17.50;;;15.60;;
67442;SDS011;54311;51.726;5.154;2023-04-15T04:33:34;17.25;;;15.52;;
67442;SDS011;54311;51.726;5.154;2023-04-15T04:35:59;16.92;;;15.30;;
67442;SDS011;54311;51.726;5.154;2023-04-15T04:38:25;16.90;;;15.35;;
67442;SDS011;54311;51.726;5.154;2023-04-15T04:40:50;17.23;;;14.98;;
67442;SDS011;54311;51.726;5.154;2023-04-15T04:43:16;15.90;;;14.57;;
67442;SDS011;54311;51.726;5.154;2023-04-15T04:45:41;16.67;;;15.13;;
67442;SDS011;54311;51.726;5.154;2023-04-15T04:48:06;15.13;;;13.82;;
67442;SDS011;54311;51.726;5.154;2023-04-15T04:50:33;15.65;;;14.07;;
67442;SDS011;54311;51.726;5.154;2023-04-15T04:52:59;15.18;;;13.85;;
67442;SDS011;54311;51.726;5.154;2023-04-15T04:55:25;15.23;;;13.82;;
67442;SDS011;54311;51.726;5.154;2023-04-15T04:57:51;14.98;;;13.48;;
67442;SDS011;54311;51.726;5.154;2023-04-15T05:00:16;16.98;;;15.07;;
67442;SDS011;54311;51.726;5.154;2023-04-15T05:02:41;15.50;;;14.10;;
67442;SDS011;54311;51.726;5.154;2023-04-15T05:05:08;16.23;;;14.45;;
67442;SDS011;54311;51.726;5.154;2023-04-15T05:07:33;17.75;;;15.98;;
67442;SDS011;54311;51.726;5.154;2023-04-15T05:09:59;16.33;;;14.02;;
67442;SDS011;54311;51.726;5.154;2023-04-15T05:12:25;16.85;;;14.90;;
67442;SDS011;54311;51.726;5.154;2023-04-15T05:14:50;16.58;;;14.88;;
67442;SDS011;54311;51.726;5.154;2023-04-15T05:17:16;18.80;;;14.85;;
67442;SDS011;54311;51.726;5.154;2023-04-15T05:19:41;16.95;;;15.45;;
67442;SDS011;54311;51.726;5.154;2023-04-15T05:22:06;18.27;;;16.63;;
67442;SDS011;54311;51.726;5.154;2023-04-15T05:24:32;16.90;;;15.23;;
67442;SDS011;54311;51.726;5.154;2023-04-15T05:26:57;19.15;;;17.42;;
67442;SDS011;54311;51.726;5.154;2023-04-15T05:29:22;19.52;;;17.63;;
67442;SDS011;54311;51.726;5.154;2023-04-15T05:31:48;18.75;;;17.13;;
67442;SDS011;54311;51.726;5.154;2023-04-15T05:34:13;20.50;;;17.80;;
67442;SDS011;54311;51.726;5.154;2023-04-15T05:36:40;19.38;;;17.63;;
67442;SDS011;54311;51.726;5.154;2023-04-15T05:39:06;21.27;;;19.05;;
67442;SDS011;54311;51.726;5.154;2023-04-15T05:41:31;20.45;;;18.45;;
67442;SDS011;54311;51.726;5.154;2023-04-15T05:43:56;18.73;;;16.83;;
67442;SDS011;54311;51.726;5.154;2023-04-15T05:46:22;19.75;;;17.75;;
67442;SDS011;54311;51.726;5.154;2023-04-15T05:48:47;18.85;;;16.95;;
67442;SDS011;54311;51.726;5.154;2023-04-15T05:51:12;20.33;;;18.42;;
67442;SDS011;54311;51.726;5.154;2023-04-15T05:53:38;21.58;;;19.67;;
67442;SDS011;54311;51.726;5.154;2023-04-15T05:56:05;22.35;;;20.20;;
67442;SDS011;54311;51.726;5.154;2023-04-15T05:58:31;22.38;;;20.17;;
67442;SDS011;54311;51.726;5.154;2023-04-15T06:00:56;21.55;;;19.30;;
67442;SDS011;54311;51.726;5.154;2023-04-15T06:03:22;20.30;;;18.38;;
67442;SDS011;54311;51.726;5.154;2023-04-15T06:05:47;19.98;;;17.17;;
67442;SDS011;54311;51.726;5.154;2023-04-15T06:08:13;17.92;;;16.20;;
67442;SDS011;54311;51.726;5.154;2023-04-15T06:10:38;16.40;;;14.93;;
67442;SDS011;54311;51.726;5.154;2023-04-15T06:13:04;16.40;;;14.80;;
67442;SDS011;54311;51.726;5.154;2023-04-15T06:15:29;16.52;;;14.88;;
67442;SDS011;54311;51.726;5.154;2023-04-15T06:17:55;14.73;;;13.40;;
67442;SDS011;54311;51.726;5.154;2023-04-15T06:20:21;15.38;;;13.80;;
67442;SDS011;54311;51.726;5.154;2023-04-15T06:22:46;16.85;;;14.93;;
67442;SDS011;54311;51.726;5.154;2023-04-15T06:25:11;15.05;;;13.65;;
67442;SDS011;54311;51.726;5.154;2023-04-15T06:27:37;15.57;;;14.27;;
67442;SDS011;54311;51.726;5.154;2023-04-15T06:30:02;15.93;;;14.43;;
67442;SDS011;54311;51.726;5.154;2023-04-15T06:32:28;17.48;;;15.60;;
67442;SDS011;54311;51.726;5.154;2023-04-15T06:34:53;16.95;;;14.85;;
67442;SDS011;54311;51.726;5.154;2023-04-15T06:37:19;18.02;;;14.80;;
67442;SDS011;54311;51.726;5.154;2023-04-15T06:39:44;16.42;;;14.93;;
67442;SDS011;54311;51.726;5.154;2023-04-15T06:42:10;17.58;;;15.82;;
67442;SDS011;54311;51.726;5.154;2023-04-15T06:44:36;15.80;;;14.38;;
67442;SDS011;54311;51.726;5.154;2023-04-15T06:47:01;16.38;;;14.57;;
67442;SDS011;54311;51.726;5.154;2023-04-15T06:49:27;15.68;;;14.07;;
67442;SDS011;54311;51.726;5.154;2023-04-15T06:51:53;16.75;;;15.02;;
67442;SDS011;54311;51.726;5.154;2023-04-15T06:54:18;15.73;;;14.23;;
67442;SDS011;54311;51.726;5.154;2023-04-15T06:56:43;17.02;;;15.38;;
67442;SDS011;54311;51.726;5.154;2023-04-15T06:59:09;16.50;;;14.90;;
67442;SDS011;54311;51.726;5.154;2023-04-15T07:01:34;16.23;;;14.73;;
67442;SDS011;54311;51.726;5.154;2023-04-15T07:04:00;20.42;;;15.13;;
67442;SDS011;54311;51.726;5.154;2023-04-15T07:06:25;18.17;;;15.27;;
67442;SDS011;54311;51.726;5.154;2023-04-15T07:08:51;16.08;;;14.43;;
67442;SDS011;54311;51.726;5.154;2023-04-15T07:11:17;17.40;;;15.77;;
67442;SDS011;54311;51.726;5.154;2023-04-15T07:13:42;16.92;;;15.18;;
67442;SDS011;54311;51.726;5.154;2023-04-15T07:16:07;16.70;;;14.88;;
67442;SDS011;54311;51.726;5.154;2023-04-15T07:18:33;16.10;;;14.73;;
67442;SDS011;54311;51.726;5.154;2023-04-15T07:20:58;17.27;;;15.60;;
67442;SDS011;54311;51.726;5.154;2023-04-15T07:23:24;16.33;;;14.77;;
67442;SDS011;54311;51.726;5.154;2023-04-15T07:25:49;16.13;;;14.63;;
67442;SDS011;54311;51.726;5.154;2023-04-15T07:28:16;16.80;;;15.20;;
67442;SDS011;54311;51.726;5.154;2023-04-15T07:30:41;17.90;;;16.25;;
67442;SDS011;54311;51.726;5.154;2023-04-15T07:33:06;15.77;;;14.23;;
67442;SDS011;54311;51.726;5.154;2023-04-15T07:35:32;15.77;;;14.38;;
67442;SDS011;54311;51.726;5.154;2023-04-15T07:37:57;14.88;;;13.57;;
67442;SDS011;54311;51.726;5.154;2023-04-15T07:40:22;16.05;;;14.70;;
67442;SDS011;54311;51.726;5.154;2023-04-15T07:42:48;15.65;;;13.88;;
67442;SDS011;54311;51.726;5.154;2023-04-15T07:45:13;16.17;;;14.68;;
67442;SDS011;54311;51.726;5.154;2023-04-15T07:47:39;14.82;;;12.82;;
67442;SDS011;54311;51.726;5.154;2023-04-15T07:50:06;16.30;;;14.23;;
67442;SDS011;54311;51.726;5.154;2023-04-15T07:52:32;14.82;;;13.40;;
67442;SDS011;54311;51.726;5.154;2023-04-15T07:55:03;15.50;;;13.82;;
67442;SDS011;54311;51.726;5.154;2023-04-15T07:57:32;13.95;;;12.63;;
67442;SDS011;54311;51.726;5.154;2023-04-15T08:00:01;13.95;;;12.65;;
67442;SDS011;54311;51.726;5.154;2023-04-15T08:02:29;15.65;;;12.10;;
67442;SDS011;54311;51.726;5.154;2023-04-15T08:04:54;13.70;;;12.38;;
67442;SDS011;54311;51.726;5.154;2023-04-15T08:07:19;13.70;;;12.57;;
67442;SDS011;54311;51.726;5.154;2023-04-15T08:09:45;13.20;;;11.98;;
67442;SDS011;54311;51.726;5.154;2023-04-15T08:12:10;16.77;;;12.85;;
67442;SDS011;54311;51.726;5.154;2023-04-15T08:14:38;12.23;;;11.10;;
67442;SDS011;54311;51.726;5.154;2023-04-15T08:17:04;13.80;;;12.50;;
67442;SDS011;54311;51.726;5.154;2023-04-15T08:19:29;14.50;;;13.18;;
67442;SDS011;54311;51.726;5.154;2023-04-15T08:21:55;13.13;;;11.80;;
67442;SDS011;54311;51.726;5.154;2023-04-15T08:24:21;15.90;;;14.40;;
67442;SDS011;54311;51.726;5.154;2023-04-15T08:26:46;14.02;;;12.82;;
67442;SDS011;54311;51.726;5.154;2023-04-15T08:29:12;13.13;;;11.93;;
67442;SDS011;54311;51.726;5.154;2023-04-15T08:31:37;13.38;;;12.07;;
67442;SDS011;54311;51.726;5.154;2023-04-15T08:34:02;11.70;;;10.63;;
67442;SDS011;54311;51.726;5.154;2023-04-15T08:36:28;12.43;;;11.25;;
67442;SDS011;54311;51.726;5.154;2023-04-15T08:38:53;11.88;;;10.77;;
67442;SDS011;54311;51.726;5.154;2023-04-15T08:41:22;11.77;;;10.75;;
67442;SDS011;54311;51.726;5.154;2023-04-15T08:43:52;12.48;;;11.40;;
67442;SDS011;54311;51.726;5.154;2023-04-15T08:46:22;12.00;;;10.77;;
67442;SDS011;54311;51.726;5.154;2023-04-15T08:48:47;11.48;;;10.23;;
67442;SDS011;54311;51.726;5.154;2023-04-15T08:51:13;10.88;;;9.90;;
67442;SDS011;54311;51.726;5.154;2023-04-15T08:53:40;12.27;;;9.55;;
67442;SDS011;54311;51.726;5.154;2023-04-15T08:56:07;9.95;;;9.25;;
67442;SDS011;54311;51.726;5.154;2023-04-15T08:58:34;10.13;;;9.23;;
67442;SDS011;54311;51.726;5.154;2023-04-15T09:01:00;10.20;;;9.20;;
67442;SDS011;54311;51.726;5.154;2023-04-15T09:03:25;10.23;;;9.02;;
67442;SDS011;54311;51.726;5.154;2023-04-15T09:05:51;10.63;;;9.02;;
67442;SDS011;54311;51.726;5.154;2023-04-15T09:08:17;10.05;;;9.10;;
67442;SDS011;54311;51.726;5.154;2023-04-15T09:10:42;11.35;;;10.25;;
67442;SDS011;54311;51.726;5.154;2023-04-15T09:13:07;9.02;;;8.05;;
67442;SDS011;54311;51.726;5.154;2023-04-15T09:15:33;7.28;;;6.78;;
67442;SDS011;54311;51.726;5.154;2023-04-15T09:18:04;8.20;;;7.45;;
67442;SDS011;54311;51.726;5.154;2023-04-15T09:20:30;8.95;;;8.02;;
67442;SDS011;54311;51.726;5.154;2023-04-15T09:23:10;9.15;;;8.32;;
67442;SDS011;54311;51.726;5.154;2023-04-15T09:25:37;7.85;;;7.18;;
67442;SDS011;54311;51.726;5.154;2023-04-15T09:28:04;14.85;;;11.10;;
67442;SDS011;54311;51.726;5.154;2023-04-15T09:30:29;9.50;;;8.60;;
67442;SDS011;54311;51.726;5.154;2023-04-15T09:32:55;8.95;;;8.32;;
67442;SDS011;54311;51.726;5.154;2023-04-15T09:35:23;11.13;;;10.02;;
67442;SDS011;54311;51.726;5.154;2023-04-15T09:37:49;9.90;;;8.18;;
67442;SDS011;54311;51.726;5.154;2023-04-15T09:40:36;8.35;;;7.45;;
67442;SDS011;54311;51.726;5.154;2023-04-15T09:43:07;12.90;;;8.27;;
67442;SDS011;54311;51.726;5.154;2023-04-15T09:45:33;7.03;;;5.93;;
67442;SDS011;54311;51.726;5.154;2023-04-15T09:48:21;6.75;;;6.15;;
67442;SDS011;54311;51.726;5.154;2023-04-15T09:50:46;6.80;;;6.22;;
67442;SDS011;54311;51.726;5.154;2023-04-15T09:53:16;7.40;;;6.70;;
67442;SDS011;54311;51.726;5.154;2023-04-15T09:55:53;7.40;;;6.63;;
67442;SDS011;54311;51.726;5.154;2023-04-15T09:58:25;7.72;;;7.13;;
67442;SDS011;54311;51.726;5.154;2023-04-15T10:00:52;5.97;;;5.40;;
67442;SDS011;54311;51.726;5.154;2023-04-15T10:03:20;5.38;;;4.88;;
67442;SDS011;54311;51.726;5.154;2023-04-15T10:05:48;7.70;;;5.47;;
67442;SDS011;54311;51.726;5.154;2023-04-15T10:08:18;5.40;;;5.07;;
67442;SDS011;54311;51.726;5.154;2023-04-15T10:10:45;6.93;;;6.28;;
67442;SDS011;54311;51.726;5.154;2023-04-15T10:13:12;6.65;;;6.07;;
67442;SDS011;54311;51.726;5.154;2023-04-15T10:15:49;4.90;;;4.38;;
67442;SDS011;54311;51.726;5.154;2023-04-15T10:18:22;4.72;;;3.95;;
67442;SDS011;54311;51.726;5.154;2023-04-15T10:20:50;4.68;;;4.38;;
67442;SDS011;54311;51.726;5.154;2023-04-15T10:23:16;5.78;;;5.25;;
67442;SDS011;54311;51.726;5.154;2023-04-15T10:25:43;5.20;;;4.90;;
67442;SDS011;54311;51.726;5.154;2023-04-15T10:28:10;4.90;;;4.50;;
67442;SDS011;54311;51.726;5.154;2023-04-15T10:30:35;6.32;;;4.30;;
67442;SDS011;54311;51.726;5.154;2023-04-15T10:33:01;4.65;;;3.92;;
67442;SDS011;54311;51.726;5.154;2023-04-15T10:35:28;5.43;;;4.88;;
67442;SDS011;54311;51.726;5.154;2023-04-15T10:37:54;5.32;;;4.82;;
67442;SDS011;54311;51.726;5.154;2023-04-15T10:40:29;7.15;;;4.43;;
67442;SDS011;54311;51.726;5.154;2023-04-15T10:43:02;5.57;;;5.22;;
67442;SDS011;54311;51.726;5.154;2023-04-15T10:45:30;6.47;;;4.60;;
67442;SDS011;54311;51.726;5.154;2023-04-15T10:47:57;6.80;;;5.07;;
67442;SDS011;54311;51.726;5.154;2023-04-15T10:50:27;10.10;;;5.13;;
67442;SDS011;54311;51.726;5.154;2023-04-15T10:52:54;5.00;;;4.53;;
67442;SDS011;54311;51.726;5.154;2023-04-15T10:55:21;5.07;;;4.68;;
67442;SDS011;54311;51.726;5.154;2023-04-15T10:57:50;5.95;;;4.88;;
67442;SDS011;54311;51.726;5.154;2023-04-15T11:00:20;5.75;;;5.05;;
67442;SDS011;54311;51.726;5.154;2023-04-15T11:08:07;5.88;;;5.32;;
67442;SDS011;54311;51.726;5.154;2023-04-15T11:10:48;5.57;;;5.18;;
67442;SDS011;54311;51.726;5.154;2023-04-15T11:13:15;5.28;;;4.72;;
67442;SDS011;54311;51.726;5.154;2023-04-15T11:15:42;5.05;;;4.65;;
67442;SDS011;54311;51.726;5.154;2023-04-15T11:20:47;5.30;;;4.22;;
67442;SDS011;54311;51.726;5.154;2023-04-15T11:23:19;5.22;;;4.78;;
67442;SDS011;54311;51.726;5.154;2023-04-15T11:25:53;4.55;;;4.20;;
67442;SDS011;54311;51.726;5.154;2023-04-15T11:28:19;5.65;;;5.20;;
67442;SDS011;54311;51.726;5.154;2023-04-15T11:30:44;5.43;;;4.93;;
67442;SDS011;54311;51.726;5.154;2023-04-15T11:33:10;4.68;;;4.38;;
67442;SDS011;54311;51.726;5.154;2023-04-15T11:35:39;5.20;;;4.85;;
67442;SDS011;54311;51.726;5.154;2023-04-15T11:38:10;4.93;;;4.60;;
67442;SDS011;54311;51.726;5.154;2023-04-15T11:40:36;4.63;;;4.32;;
67442;SDS011;54311;51.726;5.154;2023-04-15T11:43:02;4.95;;;4.57;;
67442;SDS011;54311;51.726;5.154;2023-04-15T11:45:28;4.35;;;4.15;;
67442;SDS011;54311;51.726;5.154;2023-04-15T11:47:53;4.47;;;4.15;;
67442;SDS011;54311;51.726;5.154;2023-04-15T11:50:22;7.88;;;5.07;;
67442;SDS011;54311;51.726;5.154;2023-04-15T11:53:00;4.47;;;4.18;;
67442;SDS011;54311;51.726;5.154;2023-04-15T11:55:27;4.75;;;4.45;;
67442;SDS011;54311;51.726;5.154;2023-04-15T12:01:03;4.20;;;3.88;;
67442;SDS011;54311;51.726;5.154;2023-04-15T12:03:32;5.07;;;4.03;;
67442;SDS011;54311;51.726;5.154;2023-04-15T12:08:52;7.70;;;4.28;;
67442;SDS011;54311;51.726;5.154;2023-04-15T12:11:33;4.57;;;4.20;;
67442;SDS011;54311;51.726;5.154;2023-04-15T12:14:07;5.15;;;4.75;;
67442;SDS011;54311;51.726;5.154;2023-04-15T12:16:35;5.05;;;4.65;;
67442;SDS011;54311;51.726;5.154;2023-04-15T12:19:07;5.63;;;5.22;;
67442;SDS011;54311;51.726;5.154;2023-04-15T12:21:35;5.40;;;5.00;;
67442;SDS011;54311;51.726;5.154;2023-04-15T12:24:02;5.10;;;4.88;;
67442;SDS011;54311;51.726;5.154;2023-04-15T12:26:30;5.10;;;4.70;;
67442;SDS011;54311;51.726;5.154;2023-04-15T12:31:28;4.47;;;4.20;;
67442;SDS011;54311;51.726;5.154;2023-04-15T12:33:54;4.60;;;4.32;;
67442;SDS011;54311;51.726;5.154;2023-04-15T12:36:23;4.63;;;4.20;;
67442;SDS011;54311;51.726;5.154;2023-04-15T12:38:49;5.70;;;5.30;;
67442;SDS011;54311;51.726;5.154;2023-04-15T12:41:14;6.85;;;5.13;;
67442;SDS011;54311;51.726;5.154;2023-04-15T12:43:40;5.28;;;3.40;;
67442;SDS011;54311;51.726;5.154;2023-04-15T12:46:06;9.45;;;2.65;;
67442;SDS011;54311;51.726;5.154;2023-04-15T12:48:32;3.00;;;2.80;;
67442;SDS011;54311;51.726;5.154;2023-04-15T12:50:58;5.43;;;2.60;;
67442;SDS011;54311;51.726;5.154;2023-04-15T12:53:23;3.17;;;2.88;;
67442;SDS011;54311;51.726;5.154;2023-04-15T12:55:48;3.47;;;2.70;;
67442;SDS011;54311;51.726;5.154;2023-04-15T12:58:14;3.55;;;3.35;;
67442;SDS011;54311;51.726;5.154;2023-04-15T13:00:39;4.47;;;3.45;;
67442;SDS011;54311;51.726;5.154;2023-04-15T13:03:04;4.07;;;3.88;;
67442;SDS011;54311;51.726;5.154;2023-04-15T13:05:30;4.10;;;3.53;;
67442;SDS011;54311;51.726;5.154;2023-04-15T13:07:55;4.50;;;3.72;;
67442;SDS011;54311;51.726;5.154;2023-04-15T13:10:20;4.07;;;3.80;;
67442;SDS011;54311;51.726;5.154;2023-04-15T13:12:47;4.47;;;4.07;;
67442;SDS011;54311;51.726;5.154;2023-04-15T13:15:14;3.63;;;3.40;;
67442;SDS011;54311;51.726;5.154;2023-04-15T13:17:43;4.07;;;3.88;;
67442;SDS011;54311;51.726;5.154;2023-04-15T13:20:08;4.93;;;4.30;;
67442;SDS011;54311;51.726;5.154;2023-04-15T13:22:34;3.83;;;3.50;;
67442;SDS011;54311;51.726;5.154;2023-04-15T13:24:59;4.07;;;3.88;;
67442;SDS011;54311;51.726;5.154;2023-04-15T13:27:25;4.60;;;4.20;;
67442;SDS011;54311;51.726;5.154;2023-04-15T13:29:51;5.18;;;3.95;;
67442;SDS011;54311;51.726;5.154;2023-04-15T13:32:18;4.57;;;2.92;;
67442;SDS011;54311;51.726;5.154;2023-04-15T13:34:43;4.32;;;3.95;;
67442;SDS011;54311;51.726;5.154;2023-04-15T13:37:09;4.07;;;3.72;;
67442;SDS011;54311;51.726;5.154;2023-04-15T13:39:34;3.85;;;3.47;;
67442;SDS011;54311;51.726;5.154;2023-04-15T13:41:59;6.40;;;3.60;;
67442;SDS011;54311;51.726;5.154;2023-04-15T13:44:25;4.15;;;3.70;;
67442;SDS011;54311;51.726;5.154;2023-04-15T13:46:50;4.20;;;3.90;;
67442;SDS011;54311;51.726;5.154;2023-04-15T13:49:16;4.20;;;3.83;;
67442;SDS011;54311;51.726;5.154;2023-04-15T13:51:41;6.07;;;3.72;;
67442;SDS011;54311;51.726;5.154;2023-04-15T13:54:06;3.85;;;3.70;;
67442;SDS011;54311;51.726;5.154;2023-04-15T13:56:32;5.85;;;3.72;;
67442;SDS011;54311;51.726;5.154;2023-04-15T13:58:57;3.97;;;3.72;;
67442;SDS011;54311;51.726;5.154;2023-04-15T14:01:25;7.53;;;3.65;;
67442;SDS011;54311;51.726;5.154;2023-04-15T14:03:51;3.95;;;3.55;;
67442;SDS011;54311;51.726;5.154;2023-04-15T14:06:16;3.92;;;3.63;;
67442;SDS011;54311;51.726;5.154;2023-04-15T14:08:42;5.47;;;4.43;;
67442;SDS011;54311;51.726;5.154;2023-04-15T14:11:07;5.00;;;4.60;;
67442;SDS011;54311;51.726;5.154;2023-04-15T14:13:32;5.10;;;4.70;;
67442;SDS011;54311;51.726;5.154;2023-04-15T14:15:58;4.93;;;4.53;;
67442;SDS011;54311;51.726;5.154;2023-04-15T14:18:23;8.95;;;4.20;;
67442;SDS011;54311;51.726;5.154;2023-04-15T14:20:49;4.25;;;3.95;;
67442;SDS011;54311;51.726;5.154;2023-04-15T14:23:14;4.82;;;4.45;;
67442;SDS011;54311;51.726;5.154;2023-04-15T14:25:40;5.85;;;4.05;;
67442;SDS011;54311;51.726;5.154;2023-04-15T14:28:05;4.10;;;3.38;;
67442;SDS011;54311;51.726;5.154;2023-04-15T14:30:31;4.80;;;3.50;;
67442;SDS011;54311;51.726;5.154;2023-04-15T14:32:56;4.05;;;3.75;;
67442;SDS011;54311;51.726;5.154;2023-04-15T14:35:21;4.30;;;4.00;;
67442;SDS011;54311;51.726;5.154;2023-04-15T14:37:49;6.47;;;3.42;;
67442;SDS011;54311;51.726;5.154;2023-04-15T14:40:15;4.43;;;3.92;;
67442;SDS011;54311;51.726;5.154;2023-04-15T14:42:40;3.90;;;3.60;;